Saturday, November 18, 2017, 11:56 AM GMT
Back to Local

CWQO, Ile Bicquette, Que.

Location: , , Canada Lat: 48.416
Local Time: 11:56 AM GMT (11:56 GMT) Lon: -68.893
Time Zone: GMT Elev: 22 ft

Show me the last for .
Show Coded

Time T Td Feel RH Dir Speed Gust Alt SLP Vis Weather Sky Remarks
2017-11-18 11:00 24 17 12 75 270° 12 - - - 0 Peak wind: 19 mph (17 kts) from 310° at 09 min
2017-11-18 10:00 24 15 10 70 290° 16 - - - 0 Peak wind: 24 mph (21 kts) from 290° at 14 min
2017-11-18 09:00 24 17 11 71 290° 17 - - - 0 Peak wind: 20 mph (18 kts) from 290° at 44 min
2017-11-18 08:00 25 17 12 71 290° 16 - - - 0 Peak wind: 20 mph (18 kts) from 280° at 37 min
2017-11-18 07:00 25 17 13 70 300° 14 - - - 0 Peak wind: 21 mph (19 kts) from 290° at 04 min
2017-11-18 06:00 25 17 10 70 290° 15 22 - - 0 Peak wind: 21 mph (19 kts) from 300° at 57 min
2017-11-18 05:00 28 18 13 66 300° 17 23 - - 0 Peak wind: 24 mph (21 kts) from 300° at 24 min
2017-11-18 04:00 26 19 12 73 300° 20 - - - 0 Peak wind: 28 mph (25 kts) from 320° at 09 min
2017-11-18 03:00 26 19 9 72 300° 25 32 - - 0 Peak wind: 32 mph (28 kts) from 310° at 50 min
2017-11-18 02:00 26 19 12 71 290° 21 - - - 0 Peak wind: 32 mph (28 kts) from 280° at 24 min
2017-11-18 01:00 28 22 13 79 290° 24 - - - 0 Peak wind: 28 mph (25 kts) from 300° at 53 min
2017-11-18 00:00 28 21 14 74 300° 22 - - - 0 Peak wind: 32 mph (28 kts) from 300° at 11 min
2017-11-17 23:00 28 22 13 77 310° 26 - - - 0 Peak wind: 33 mph (29 kts) from 310° at 41 min
2017-11-17 22:00 29 23 14 77 310° 29 - - - 0 Peak wind: 36 mph (32 kts) from 300° at 01 min
2017-11-17 21:00 30 25 15 82 310° 29 - - - 0 Peak wind: 33 mph (29 kts) from 300° at 42 min
2017-11-17 20:00 31 26 16 78 310° 28 36 - - 0 Peak wind: 36 mph (32 kts) from 310° at 08 min
2017-11-17 19:00 32 26 17 76 310° 31 - - - 0 Peak wind: 36 mph (32 kts) from 310° at 03 min
2017-11-17 18:00 33 26 18 76 310° 28 33 - - 0 Peak wind: 35 mph (31 kts) from 310° at 28 min
2017-11-17 17:00 34 29 19 82 310° 29 36 - - 0 Peak wind: 35 mph (31 kts) from 310° at 34 min
2017-11-17 16:00 35 30 21 79 310° 28 33 - - 0 Peak wind: 33 mph (29 kts) from 310° at 54 min
2017-11-17 15:00 36 30 23 79 310° 24 30 - - 0 Peak wind: 29 mph (26 kts) from 310° at 56 min
2017-11-17 14:00 36 31 24 83 310° 18 24 - - 0 Peak wind: 24 mph (21 kts) from 310° at 58 min
2017-11-17 13:00 36 31 26 84 300° 16 - - - 0 None
2017-11-17 12:00 36 33 26 91 310° 15 - - - 0 Peak wind: 19 mph (17 kts) from 310° at 58 min

Support USWX by starting your Amazon purchase here.